Pamo Valley (237) Station Data

Red Flag Warning: No
Fire Weather Zone: 250
SDGE Region: Ramona
Lat/Lon: 33.143/-116.848

Observations

Time Wind Speed/Gust Temp(F) RH Fuel Moist Fuel Temp(F) Dewpt(F) Tmax(F) Tmin(F) Accum Precip 10-min Precip SL Press(mb)
4/26 2:40am 99 2 G 3 48° 91% - - 46° 52.3° 46.4° - - -
4/26 2:30am 338 1 G 2 47° 89% - - 44° 52.3° 46.4° - - -
4/26 2:20am 250 1 G 2 48° 87% - - 45° 52.3° 47.2° - - -
4/26 2:10am 66 2 G 3 49° 89% - - 46° 52.3° 47.2° - - -
4/26 2:00am 38 3 G 4 48° 90% - - 45° 52.3° 47.2° - - -
4/26 1:50am 15 3 G 4 48° 89% - - 45° 52.3° 47.2° - - -
4/26 1:40am 36 2 G 3 49° 88% - - 45° 52.3° 47.6° - - -
4/26 1:30am 133 2 G 3 49° 89% - - 46° 52.3° 47.6° - - -
4/26 1:20am 208 2 G 3 48° 87% - - 45° 52.3° 47.6° - - -
4/26 1:10am 119 2 G 4 51° 83% - - 46° 52.3° 48.8° - - -
4/26 1:00am 177 2 G 5 50° 87% - - 46° 52° 48.8° - - -
4/26 12:50am 290 0 G 1 50° 84% - - 45° 52° 48.9° - - -
4/26 12:40am 237 0 G 1 51° 83% - - 46° 52° 50° - - -
4/26 12:30am 91 1 G 2 50° 84% - - 46° 52° 50° - - -
4/26 12:20am 16 0 G 2 51° 82% - - 46° 52° 50.1° - - -
4/26 12:10am 54 1 G 2 51° 83% - - 46° 51.9° 51.2° - - -
4/26 12:00am 48 2 G 4 51° 83% - - 46° 69.1° 50.5° - - -
4/25 11:50pm 20 1 G 3 51° 82% - - 46° 69.1° 50.6° - - -
4/25 11:40pm 22 1 G 2 52° 81% - - 46° 69.1° 51.2° - - -
4/25 11:30pm 66 1 G 2 52° 82% - - 46° 69.1° 51.2° - - -
4/25 11:20pm 319 1 G 2 52° 80% - - 46° 69.1° 51.5° - - -
4/25 11:10pm 55 1 G 2 53° 79% - - 47° 69.1° 52.2° - - -
4/25 11:00pm 79 1 G 3 53° 79% - - 47° 69.1° 52.2° - - -
4/25 10:50pm 333 1 G 2 53° 78% - - 47° 69.1° 52.3° - - -
4/25 10:40pm 48 1 G 2 53° 78% - - 47° 69.1° 52.8° - - -
4/25 10:30pm 115 0 G 1 53° 78% - - 47° 69.1° 52.8° - - -
4/25 10:20pm 238 1 G 2 54° 76% - - 47° 69.1° 53° - - -
4/25 10:10pm 101 1 G 2 55° 75% - - 47° 69.1° 54.4° - - -
4/25 10:00pm 339 0 G 1 55° 74% - - 47° 69.1° 54.4° - - -
4/25 9:50pm 358 1 G 3 55° 75% - - 47° 69.1° 54.4° - - -
4/25 9:40pm 352 1 G 2 55° 74% - - 47° 69.1° 54.7° - - -
4/25 9:30pm 36 1 G 2 56° 73% - - 47° 69.1° 55.2° - - -
4/25 9:20pm 9 0 G 1 56° 72% - - 47° 69.1° 55.3° - - -
4/25 9:10pm 270 0 G 1 56° 72% - - 47° 69.1° 55.3° - - -
4/25 9:00pm 62 0 G 1 56° 72% - - 47° 69.1° 55.8° - - -
4/25 8:50pm 296 1 G 2 57° 71% - - 47° 69.1° 55.8° - - -
4/25 8:40pm 159 2 G 3 58° 67% - - 47° 69.1° 56.2° - - -
4/25 8:30pm 185 1 G 4 58° 66% - - 47° 69.1° 56.2° - - -
4/25 8:20pm 158 3 G 5 59° 65% - - 47° 69.1° 56.2° - - -
4/25 8:10pm 137 4 G 5 59° 65% - - 48° 69.1° 56.2° - - -
4/25 8:00pm 128 4 G 5 60° 65% - - 48° 69.1° 56.2° - - -
4/25 7:50pm 123 4 G 7 60° 64% - - 48° 69.1° 56.2° - - -
4/25 7:40pm 130 5 G 7 61° 63% - - 48° 69.1° 56.2° - - -
4/25 7:30pm 151 3 G 6 61° 62% - - 48° 69.1° 56.2° - - -
4/25 7:20pm 167 2 G 5 62° 60% - - 48° 69.1° 56.2° - - -
4/25 7:10pm 274 4 G 7 63° 60% - - 49° 69.1° 56.2° - - -
4/25 7:00pm 305 3 G 7 63° 60% - - 49° 69.1° 56.2° - - -
4/25 6:50pm 270 5 G 7 63° 60% - - 49° 69.1° 56.2° - - -
4/25 6:40pm 265 6 G 9 64° 60% - - 50° 69.1° 56.2° - - -
4/25 6:30pm 258 6 G 11 64° 60% - - 50° 69.1° 56.2° - - -
4/25 6:20pm 247 8 G 13 64° 59% - - 50° 69.1° 56.2° - - -
4/25 6:10pm 241 9 G 14 64° 59% - - 50° 69.1° 56.2° - - -
4/25 6:00pm 236 9 G 14 65° 59% - - 50° 69.1° 56.2° - - -
4/25 5:50pm 238 9 G 15 65° 58% - - 50° 69.1° 56.2° - - -
4/25 5:40pm 223 8 G 14 66° 57% - - 50° 69.1° 56.2° - - -
4/25 5:30pm 226 6 G 14 66° 58% - - 50° 69.1° 56.2° - - -
4/25 5:20pm 232 8 G 12 66° 58% - - 51° 69.1° 56.2° - - -
4/25 5:10pm 223 8 G 12 66° 57% - - 51° 69.1° 56.2° - - -
4/25 5:00pm 221 8 G 13 66° 57% - - 51° 69.1° 56.2° - - -
4/25 4:50pm 224 7 G 14 66° 57% - - 51° 69.1° 56.2° - - -
4/25 4:40pm 231 10 G 17 67° 57% - - 51° 69.1° 56.2° - - -
4/25 4:30pm 247 7 G 11 67° 55% - - 50° 69.1° 56.2° - - -
4/25 4:20pm 250 8 G 13 67° 54% - - 50° 69.1° 56.2° - - -
4/25 4:10pm 246 8 G 15 67° 54% - - 50° 69.1° 56.2° - - -
4/25 4:00pm 240 8 G 14 68° 53% - - 51° 69.1° 56.2° - - -
4/25 3:50pm 259 6 G 12 68° 52% - - 50° 69.1° 56.2° - - -
4/25 3:40pm 256 6 G 10 67° 54% - - 50° 69° 56.2° - - -
4/25 3:30pm 270 6 G 14 67° 55% - - 50° 69° 56.2° - - -
4/25 3:20pm 263 7 G 11 67° 54% - - 50° 69° 56.2° - - -
4/25 3:10pm 255 6 G 11 67° 55% - - 51° 69° 56.2° - - -
4/25 3:00pm 237 8 G 12 67° 57% - - 51° 69° 56.2° - - -
4/25 2:50pm 221 9 G 14 66° 58% - - 51° 69° 56.2° - - -
4/25 2:40pm 225 7 G 14 67° 55% - - 50° 69° 56.2° - - -
4/25 2:30pm 236 7 G 13 66° 55% - - 50° 69° 56.2° - - -
4/25 2:20pm 223 9 G 14 68° 53% - - 50° 69° 56.2° - - -
4/25 2:10pm 228 8 G 14 68° 52% - - 50° 69° 56.2° - - -
4/25 2:00pm 235 8 G 15 67° 54% - - 50° 68.8° 56.2° - - -
4/25 1:50pm 248 9 G 15 67° 55% - - 50° 68.8° 56.2° - - -
4/25 1:40pm 256 8 G 14 67° 55% - - 50° 68.8° 56.2° - - -
4/25 1:30pm 228 9 G 15 67° 54% - - 50° 68.8° 56.2° - - -
4/25 1:20pm 263 5 G 11 68° 52% - - 49° 68.8° 56.2° - - -
4/25 1:10pm 258 6 G 14 68° 51% - - 49° 68.8° 56.2° - - -
4/25 1:00pm 229 7 G 12 67° 52% - - 49° 68.2° 56.2° - - -
4/25 12:50pm 240 9 G 15 67° 52% - - 49° 68.2° 56.2° - - -
4/25 12:40pm 265 4 G 10 66° 52% - - 48° 68.2° 56.2° - - -
4/25 12:30pm 273 7 G 12 67° 51% - - 48° 68.2° 56.2° - - -
4/25 12:20pm 264 7 G 16 67° 52% - - 49° 68.2° 56.2° - - -
4/25 12:10pm 248 5 G 10 66° 52% - - 48° 67.2° 56.2° - - -
4/25 12:00pm 238 8 G 12 66° 52% - - 48° 66.9° 56.2° - - -
4/25 11:50am 209 5 G 10 66° 51% - - 47° 66.9° 56.2° - - -
4/25 11:40am 262 7 G 10 65° 52% - - 48° 66.7° 56.2° - - -
4/25 11:30am 231 4 G 12 66° 51% - - 47° 66.7° 56.2° - - -
4/25 11:20am 238 2 G 6 65° 50% - - 46° 66° 56.2° - - -
4/25 11:10am 263 4 G 8 65° 54% - - 48° 66° 56.2° - - -
4/25 11:00am 228 4 G 8 64° 55% - - 48° 65.4° 56.2° - - -
4/25 10:50am 67 2 G 8 65° 53% - - 47° 65.4° 56.2° - - -
4/25 10:40am 338 3 G 7 64° 55% - - 47° 64.7° 56.2° - - -
4/25 10:30am 234 4 G 8 63° 58% - - 48° 63.8° 56.2° - - -
4/25 10:20am 228 4 G 9 62° 60% - - 48° 63° 56.2° - - -
4/25 10:10am 249 5 G 9 62° 59% - - 48° 63° 56.2° - - -
4/25 10:00am 222 3 G 7 63° 61% - - 49° 63° 56.2° - - -
4/25 9:50am 233 4 G 8 62° 61% - - 48° 62.9° 56.2° - - -
4/25 9:40am 224 6 G 9 61° 65% - - 49° 62.9° 56.2° - - -
4/25 9:30am 210 7 G 11 61° 66% - - 50° 62.2° 56.2° - - -
4/25 9:20am 207 7 G 13 61° 67% - - 50° 61.6° 56.2° - - -
4/25 9:10am 217 6 G 11 61° 68% - - 50° 61.2° 56.2° - - -
4/25 9:00am 204 4 G 6 59° 72% - - 51° 60.2° 56.2° - - -
4/25 8:50am 220 4 G 7 59° 73% - - 51° 59.7° 56.2° - - -
4/25 8:40am 220 4 G 8 59° 74% - - 51° 59.6° 56.2° - - -
4/25 8:30am 183 4 G 8 58° 76% - - 51° 58.9° 56.2° - - -
4/25 8:20am 193 5 G 8 58° 77% - - 51° 58.5° 56.2° - - -
4/25 8:10am 199 6 G 9 58° 78% - - 51° 58.5° 56.2° - - -
4/25 8:00am 197 6 G 9 57° 79% - - 51° 58.2° 56.2° - - -
4/25 7:50am 203 5 G 8 57° 80% - - 51° 58.2° 56.2° - - -
4/25 7:40am 209 6 G 9 57° 80% - - 51° 58.2° 56.2° - - -
4/25 7:30am 213 5 G 8 57° 81% - - 51° 58.2° 56.2° - - -
4/25 7:20am 203 5 G 9 57° 81% - - 51° 58.2° 56.2° - - -
4/25 7:10am 209 5 G 10 57° 81% - - 51° 58.2° 56.2° - - -
4/25 7:00am 188 2 G 5 57° 81% - - 51° 58.2° 56.2° - - -
4/25 6:50am 195 2 G 4 57° 81% - - 51° 58.2° 56.2° - - -
4/25 6:40am 202 3 G 5 57° 80% - - 51° 58.2° 56.2° - - -
4/25 6:30am 215 2 G 4 57° 80% - - 50° 58.2° 56.2° - - -
4/25 6:20am 171 2 G 3 57° 80% - - 50° 58.2° 56.2° - - -
4/25 6:10am 196 3 G 4 57° 80% - - 50° 58.2° 56.2° - - -
4/25 6:00am 210 3 G 4 57° 79% - - 50° 58.2° 56.2° - - -
4/25 5:50am 209 2 G 4 57° 79% - - 50° 58.2° 56.2° - - -
4/25 5:40am 209 3 G 5 57° 79% - - 50° 58.2° 56.2° - - -
4/25 5:30am 217 2 G 4 57° 79% - - 50° 58.2° 56.2° - - -
4/25 5:20am 216 2 G 4 57° 78% - - 50° 58.2° 56.4° - - -
4/25 5:10am 204 2 G 4 57° 78% - - 50° 58.2° 56.4° - - -
4/25 5:00am 205 2 G 4 57° 78% - - 50° 58.2° 56.4° - - -
4/25 4:50am 175 2 G 4 57° 78% - - 50° 58.2° 56.4° - - -
4/25 4:40am 183 2 G 4 57° 78% - - 50° 58.2° 56.4° - - -
4/25 4:30am 206 3 G 5 57° 78% - - 50° 58.2° 56.4° - - -
4/25 4:20am 211 3 G 6 57° 78% - - 50° 58.2° 56.4° - - -
4/25 4:10am 206 3 G 6 57° 78% - - 50° 58.2° 56.4° - - -
4/25 4:00am 202 4 G 6 57° 78% - - 50° 58.2° 56.4° - - -
4/25 3:50am 229 4 G 6 57° 78% - - 50° 58.2° 56.4° - - -
4/25 3:40am 205 5 G 8 57° 78% - - 50° 58.2° 56.5° - - -
4/25 3:30am 196 8 G 11 57° 78% - - 50° 58.2° 56.5° - - -
4/25 3:20am 199 7 G 10 57° 79% - - 50° 58.2° 56.5° - - -
4/25 3:10am 210 6 G 9 57° 80% - - 51° 58.2° 56.5° - - -
4/25 3:00am 204 6 G 9 57° 80% - - 51° 58.2° 56.5° - - -
4/25 2:50am 218 5 G 8 57° 80% - - 51° 58.2° 56.5° - - -
4/25 2:40am 229 5 G 7 57° 79% - - 51° 58.2° 56.5° - - -
4/25 2:30am 230 6 G 8 57° 78% - - 50° 58.2° 56.5° - - -
4/25 2:20am 221 5 G 8 57° 79% - - 50° 58.2° 56.5° - - -
4/25 2:10am 212 6 G 10 57° 78% - - 50° 58.2° 56.5° - - -
4/25 2:00am 212 7 G 11 57° 78% - - 50° 58.2° 56.5° - - -
4/25 1:50am 200 8 G 11 57° 78% - - 50° 58.2° 56.5° - - -
4/25 1:40am 201 8 G 12 57° 77% - - 50° 58.2° 56.6° - - -
4/25 1:30am 203 6 G 10 57° 77% - - 50° 58.2° 56.6° - - -
4/25 1:20am 194 6 G 10 57° 79% - - 50° 58.2° 56.6° - - -
4/25 1:10am 208 7 G 11 57° 79% - - 51° 58.2° 56.6° - - -
4/25 1:00am 202 7 G 10 57° 79% - - 51° 58.2° 56.9° - - -
4/25 12:50am 199 6 G 9 58° 77% - - 50° 58.2° 57.2° - - -
4/25 12:40am 193 7 G 10 58° 77% - - 50° 58.2° 57.2° - - -
4/25 12:30am 195 7 G 11 58° 77% - - 50° 58.2° 57.2° - - -
4/25 12:20am 200 5 G 7 58° 76% - - 50° 58.2° 57.4° - - -
4/25 12:10am 188 6 G 9 58° 76% - - 50° 58.2° 57.5° - - -
4/25 12:00am 175 4 G 9 58° 76% - - 50° 72° 54° - - -
4/24 11:50pm 170 5 G 8 58° 77% - - 51° 72° 54° - - -
4/24 11:40pm 180 5 G 9 58° 76% - - 51° 72° 54° - - -
4/24 11:30pm 200 5 G 9 58° 77% - - 51° 72° 54° - - -
4/24 11:20pm 216 5 G 7 58° 77% - - 51° 72° 54° - - -
4/24 11:10pm 201 5 G 8 58° 77% - - 51° 72° 54° - - -
4/24 11:00pm 200 7 G 10 58° 77% - - 51° 72° 54° - - -
4/24 10:50pm 198 7 G 9 58° 78% - - 51° 72° 54° - - -
4/24 10:40pm 212 5 G 8 59° 78% - - 52° 72° 54° - - -
4/24 10:30pm 222 4 G 6 59° 77% - - 51° 72° 54° - - -
4/24 10:20pm 214 3 G 4 59° 75% - - 51° 72° 54° - - -
4/24 10:10pm 196 4 G 6 59° 74% - - 51° 72° 54° - - -
4/24 10:00pm 192 4 G 6 59° 74% - - 51° 72° 54° - - -
4/24 9:50pm 186 4 G 6 59° 73% - - 51° 72° 54° - - -
4/24 9:40pm 135 3 G 5 59° 74% - - 51° 72° 54° - - -
4/24 9:30pm 140 2 G 4 59° 74% - - 51° 72° 54° - - -
4/24 9:20pm 174 2 G 5 59° 73% - - 51° 72° 54° - - -
4/24 9:10pm 189 3 G 6 59° 73% - - 51° 72° 54° - - -
4/24 9:00pm 187 4 G 7 59° 73% - - 51° 72° 54° - - -
4/24 8:50pm 205 4 G 8 60° 73% - - 51° 72° 54° - - -
4/24 8:40pm 201 4 G 7 60° 73% - - 51° 72° 54° - - -
4/24 8:30pm 230 4 G 7 60° 73% - - 51° 72° 54° - - -
4/24 8:20pm 202 5 G 8 60° 74% - - 51° 72° 54° - - -
4/24 8:10pm 173 3 G 6 60° 73% - - 51° 72° 54° - - -
4/24 8:00pm 158 3 G 4 60° 73% - - 51° 72° 54° - - -
4/24 7:50pm 146 3 G 4 60° 73% - - 52° 72° 54° - - -
4/24 7:40pm 216 3 G 7 60° 73% - - 52° 72° 54° - - -
4/24 7:30pm 196 4 G 8 61° 73% - - 52° 72° 54° - - -
4/24 7:20pm 211 4 G 8 61° 72% - - 52° 72° 54° - - -
4/24 7:10pm 226 5 G 10 61° 72% - - 52° 72° 54° - - -
4/24 7:00pm 231 6 G 11 61° 72% - - 52° 72° 54° - - -
4/24 6:50pm 228 6 G 11 62° 71% - - 52° 72° 54° - - -
4/24 6:40pm 242 7 G 12 62° 71% - - 52° 72° 54° - - -
4/24 6:30pm 238 8 G 11 63° 69% - - 53° 72° 54° - - -
4/24 6:20pm 238 7 G 11 63° 68% - - 53° 72° 54° - - -
4/24 6:10pm 236 9 G 13 64° 66% - - 53° 72° 54° - - -
4/24 6:00pm 238 8 G 12 64° 65% - - 52° 72° 54° - - -